Time;durP1;ratioP1;P1;durP2;ratioP2;P2;SDS_P1;SDS_P2;PMS_P1;PMS_P2;Temp;Humidity;BMP_temperature;BMP_pressure;BME280_temperature;BME280_humidity;BME280_pressure;Samples;Min_cycle;Max_cycle;Signal;HPM_P1;HPM_P2
2022/06/10 00:00:42;;;;;;;11.40;3.72;;;13.60;99.90;;;;;;4994860;28;20037;-75
2022/06/10 00:03:12;;;;;;;12.27;3.88;;;13.60;99.90;;;;;;4991937;28;20084;-75
2022/06/10 00:05:40;;;;;;;11.52;3.72;;;13.60;99.90;;;;;;4972706;28;20048;-75
2022/06/10 00:08:08;;;;;;;6.65;3.20;;;13.50;99.90;;;;;;5001968;28;20048;-75
2022/06/10 00:10:45;;;;;;;9.00;3.53;;;13.50;99.90;;;;;;4994424;28;20045;-75
2022/06/10 00:13:12;;;;;;;12.10;3.70;;;13.60;99.90;;;;;;4982349;28;20503;-75
2022/06/10 00:15:38;;;;;;;10.98;3.45;;;14.00;99.90;;;;;;4994337;28;20072;-75
2022/06/10 00:18:04;;;;;;;7.55;3.40;;;13.50;99.90;;;;;;4989164;28;20069;-75
2022/06/10 00:20:32;;;;;;;11.55;3.50;;;13.50;99.90;;;;;;4985874;28;20561;-75
2022/06/10 00:22:58;;;;;;;8.73;3.55;;;13.50;99.90;;;;;;4993732;28;20073;-75
2022/06/10 00:25:24;;;;;;;10.48;4.03;;;13.50;99.90;;;;;;4985173;28;20554;-75
2022/06/10 00:27:51;;;;;;;7.32;3.20;;;13.50;99.90;;;;;;4979587;28;20046;-75
2022/06/10 00:30:19;;;;;;;8.02;3.40;;;13.50;99.90;;;;;;4989876;28;20113;-75
2022/06/10 00:32:44;;;;;;;11.38;3.55;;;13.70;99.90;;;;;;4997060;28;20524;-75
2022/06/10 00:35:11;;;;;;;8.48;3.00;;;13.80;99.90;;;;;;4974974;28;20037;-75
2022/06/10 00:37:37;;;;;;;8.98;3.70;;;13.60;99.90;;;;;;4973532;28;20042;-75
2022/06/10 00:40:05;;;;;;;8.23;3.20;;;13.40;99.90;;;;;;4973094;28;20042;-75
2022/06/10 00:42:31;;;;;;;13.68;3.92;;;13.40;99.90;;;;;;4972237;28;20042;-75
2022/06/10 00:44:57;;;;;;;10.35;3.50;;;13.40;99.90;;;;;;4983225;28;20065;-75
2022/06/10 00:47:41;;;;;;;7.82;2.88;;;13.40;99.90;;;;;;4984891;28;20045;-75
2022/06/10 00:50:20;;;;;;;11.20;3.47;;;13.40;99.90;;;;;;4972031;28;20534;-75
2022/06/10 00:52:52;;;;;;;10.57;3.90;;;13.30;99.90;;;;;;4989407;28;20221;-75
2022/06/10 00:55:28;;;;;;;12.07;3.50;;;13.40;99.90;;;;;;5006603;28;20142;-75
2022/06/10 00:58:07;;;;;;;9.23;3.40;;;13.40;99.90;;;;;;4974149;28;20103;-75
2022/06/10 01:00:34;;;;;;;11.93;3.50;;;13.40;99.90;;;;;;4987661;28;20434;-75
2022/06/10 01:03:00;;;;;;;15.00;3.30;;;13.30;99.90;;;;;;4987627;28;20521;-75
2022/06/10 01:05:27;;;;;;;11.25;3.58;;;13.40;99.90;;;;;;5003683;28;20038;-75
2022/06/10 01:08:00;;;;;;;9.98;3.75;;;13.40;99.90;;;;;;4993038;28;20049;-75
2022/06/10 01:10:26;;;;;;;;;;;13.60;99.90;;;;;;4993963;28;20054;-75
2022/06/10 01:13:29;;;;;;;9.88;3.38;;;13.40;99.90;;;;;;5017648;28;19964;-74
2022/06/10 01:16:03;;;;;;;11.65;3.78;;;13.50;99.90;;;;;;4937866;28;20399;-75
2022/06/10 01:18:36;;;;;;;10.93;3.45;;;13.50;99.90;;;;;;4983163;28;20402;-75
2022/06/10 01:21:20;;;;;;;10.02;3.50;;;13.30;99.90;;;;;;4990732;28;20048;-75
2022/06/10 01:23:54;;;;;;;8.50;3.55;;;13.30;99.90;;;;;;4988587;28;20042;-75
2022/06/10 01:30:08;;;;;;;9.85;3.03;;;13.30;99.90;;;;;;4979967;28;20494;-75
2022/06/10 01:32:41;;;;;;;6.82;3.63;;;13.30;99.90;;;;;;4976114;28;20087;-75
2022/06/10 01:35:18;;;;;;;9.93;3.70;;;13.20;99.90;;;;;;4979314;28;20050;-75
2022/06/10 01:38:06;;;;;;;9.90;3.40;;;13.20;99.90;;;;;;4989838;28;20085;-75
2022/06/10 01:40:51;;;;;;;8.85;3.53;;;13.40;99.90;;;;;;5010381;28;20029;-75
2022/06/10 01:43:46;;;;;;;7.95;3.40;;;13.20;99.90;;;;;;5008538;28;20042;-75
2022/06/10 01:46:20;;;;;;;11.23;3.85;;;13.20;99.90;;;;;;4987010;28;20046;-75
2022/06/10 01:49:09;;;;;;;11.40;3.53;;;13.20;99.90;;;;;;4976571;28;20030;-75
2022/06/10 01:52:27;;;;;;;12.38;3.67;;;13.20;99.90;;;;;;5006984;28;20043;-75
2022/06/10 01:55:13;;;;;;;9.65;3.60;;;13.10;99.90;;;;;;4881251;29;20552;-75
2022/06/10 01:58:03;;;;;;;10.15;3.83;;;13.10;99.90;;;;;;4883872;29;20088;-75
2022/06/10 02:00:33;;;;;;;10.75;3.85;;;13.10;99.90;;;;;;4971992;28;20108;-75
2022/06/10 02:03:04;;;;;;;9.32;3.78;;;13.10;99.90;;;;;;4993514;28;20116;-75
2022/06/10 02:05:37;;;;;;;13.70;3.63;;;13.10;99.90;;;;;;4991917;28;20561;-75
2022/06/10 02:08:12;;;;;;;7.57;3.60;;;13.10;99.90;;;;;;5009975;28;20045;-75
2022/06/10 02:10:49;;;;;;;13.20;3.63;;;13.10;99.90;;;;;;4986622;28;20410;-75
2022/06/10 02:13:21;;;;;;;8.98;3.50;;;13.00;99.90;;;;;;5002846;28;20108;-75
2022/06/10 02:15:54;;;;;;;12.13;3.55;;;13.00;99.90;;;;;;4981556;28;20049;-75
2022/06/10 02:18:59;;;;;;;10.93;3.58;;;13.00;99.90;;;;;;5000438;28;20053;-75
2022/06/10 02:21:51;;;;;;;8.85;3.50;;;13.00;99.90;;;;;;4953311;28;20054;-75
2022/06/10 02:24:26;;;;;;;8.73;3.53;;;13.00;99.90;;;;;;4995069;28;20045;-75
2022/06/10 02:26:59;;;;;;;9.90;3.60;;;12.90;99.90;;;;;;4990043;28;20048;-75
2022/06/10 02:29:32;;;;;;;11.73;3.83;;;12.90;99.90;;;;;;4979840;28;20125;-75
2022/06/10 02:32:00;;;;;;;9.07;3.58;;;12.90;99.90;;;;;;4987035;28;20071;-75
2022/06/10 02:34:27;;;;;;;10.20;4.05;;;12.90;99.90;;;;;;4992098;28;20053;-75
2022/06/10 02:37:01;;;;;;;7.63;3.58;;;12.90;99.90;;;;;;4994078;28;20050;-75
2022/06/10 02:39:42;;;;;;;7.82;3.42;;;12.80;99.90;;;;;;4984800;28;20092;-75
2022/06/10 02:42:33;;;;;;;11.07;3.60;;;12.80;99.90;;;;;;4991666;28;20042;-75
2022/06/10 02:45:22;;;;;;;10.82;3.80;;;12.80;99.90;;;;;;5011880;28;20045;-75
2022/06/10 02:48:00;;;;;;;7.82;3.60;;;12.80;99.90;;;;;;4992491;28;20096;-75
2022/06/10 02:50:26;;;;;;;14.13;4.07;;;12.80;99.90;;;;;;4991505;28;20096;-75
2022/06/10 02:52:52;;;;;;;10.45;3.72;;;13.00;99.90;;;;;;4995473;28;20038;-75
2022/06/10 02:55:21;;;;;;;10.35;3.80;;;12.80;99.90;;;;;;4991633;28;20137;-75
2022/06/10 03:01:11;;;;;;;13.85;4.18;;;12.80;99.90;;;;;;5007479;28;20046;-75
2022/06/10 03:03:37;;;;;;;14.27;4.00;;;12.80;99.90;;;;;;5007833;28;20076;-75
2022/06/10 03:06:27;;;;;;;11.80;4.15;;;12.80;99.90;;;;;;4992679;28;20481;-75
2022/06/10 03:09:20;;;;;;;10.00;3.75;;;12.80;99.90;;;;;;4987475;28;20046;-75
2022/06/10 03:11:59;;;;;;;9.88;3.80;;;12.70;99.90;;;;;;4991508;28;20046;-75
2022/06/10 03:14:36;;;;;;;13.75;3.83;;;12.70;99.90;;;;;;4985486;28;20046;-75
2022/06/10 03:17:34;;;;;;;12.48;3.92;;;12.70;99.90;;;;;;4985685;28;20045;-75
2022/06/10 03:20:15;;;;;;;13.23;3.60;;;12.70;99.90;;;;;;4960603;28;20516;-75
2022/06/10 03:23:27;;;;;;;15.25;3.70;;;12.70;99.90;;;;;;4987330;28;20077;-75
2022/06/10 03:26:03;;;;;;;9.35;3.80;;;12.70;99.90;;;;;;4951704;28;20092;-75
2022/06/10 03:28:37;;;;;;;12.40;4.40;;;12.70;99.90;;;;;;4984565;28;20041;-75
2022/06/10 03:31:10;;;;;;;14.77;3.97;;;12.70;99.90;;;;;;4970987;28;20184;-75
2022/06/10 03:33:42;;;;;;;13.93;4.20;;;12.70;99.90;;;;;;4994848;28;20045;-75
2022/06/10 03:36:25;;;;;;;18.75;4.30;;;12.70;99.90;;;;;;4987088;28;20033;-75
2022/06/10 03:38:52;;;;;;;12.43;4.40;;;12.70;99.90;;;;;;4989617;28;20053;-75
2022/06/10 03:41:31;;;;;;;15.50;4.38;;;12.70;99.90;;;;;;4976266;28;20030;-75
2022/06/10 03:44:01;;;;;;;9.68;4.28;;;12.70;99.90;;;;;;4993763;28;20112;-75
2022/06/10 03:46:30;;;;;;;12.13;4.30;;;12.80;99.90;;;;;;4991668;28;20041;-75
2022/06/10 03:48:58;;;;;;;14.60;4.55;;;12.70;99.90;;;;;;4993495;28;20060;-75
2022/06/10 03:51:25;;;;;;;11.95;4.70;;;12.70;99.90;;;;;;4989684;28;20121;-75
2022/06/10 03:53:50;;;;;;;13.25;4.53;;;13.10;99.90;;;;;;4994993;28;20546;-75
2022/06/10 03:56:22;;;;;;;12.00;4.95;;;12.80;99.90;;;;;;4970627;28;20125;-76
2022/06/10 03:58:47;;;;;;;15.00;4.53;;;12.80;99.90;;;;;;4987944;28;20065;-75
2022/06/10 04:01:13;;;;;;;14.05;4.68;;;12.80;99.90;;;;;;4994142;28;20520;-75
2022/06/10 04:03:38;;;;;;;11.05;4.18;;;13.10;99.90;;;;;;4968876;28;20043;-75
2022/06/10 04:06:04;;;;;;;12.27;4.35;;;13.20;99.90;;;;;;5013333;28;20037;-75
2022/06/10 04:08:30;;;;;;;14.68;4.15;;;12.80;99.90;;;;;;5011998;28;20101;-75
2022/06/10 04:10:56;;;;;;;15.75;4.38;;;12.80;99.90;;;;;;4980288;28;20086;-75
2022/06/10 04:13:21;;;;;;;12.98;5.30;;;12.80;99.90;;;;;;4988941;28;20038;-75
2022/06/10 04:15:47;;;;;;;13.50;4.82;;;12.80;99.90;;;;;;4988589;28;20049;-75
2022/06/10 04:18:14;;;;;;;13.05;4.75;;;12.80;99.90;;;;;;4983618;28;20070;-75
2022/06/10 04:20:41;;;;;;;16.92;4.93;;;12.80;99.90;;;;;;4966322;28;20084;-75
2022/06/10 04:23:07;;;;;;;13.65;5.10;;;12.80;99.90;;;;;;5015664;28;20078;-75
2022/06/10 04:25:34;;;;;;;11.48;4.40;;;12.80;99.90;;;;;;4988696;28;20042;-75
2022/06/10 04:28:00;;;;;;;11.13;4.95;;;12.80;99.90;;;;;;4982308;28;20039;-75
2022/06/10 04:30:36;;;;;;;9.85;4.22;;;13.00;99.90;;;;;;4985986;28;20057;-75
2022/06/10 04:33:03;;;;;;;10.52;4.55;;;13.00;99.90;;;;;;5007098;28;20038;-75
2022/06/10 04:35:29;;;;;;;16.02;5.00;;;12.80;99.90;;;;;;5009364;28;20410;-75
2022/06/10 04:37:56;;;;;;;12.98;4.82;;;12.80;99.90;;;;;;5011095;28;20050;-75
2022/06/10 04:40:25;;;;;;;13.80;5.05;;;12.80;99.90;;;;;;4981322;28;20042;-75
2022/06/10 04:42:51;;;;;;;14.98;5.70;;;12.90;99.90;;;;;;4993832;28;20037;-75
2022/06/10 04:45:21;;;;;;;10.23;5.00;;;12.90;99.90;;;;;;4990628;28;20034;-75
2022/06/10 04:47:47;;;;;;;13.20;5.05;;;12.90;99.90;;;;;;4988443;28;20042;-75
2022/06/10 04:50:15;;;;;;;12.68;5.78;;;12.90;99.90;;;;;;4989074;28;20050;-75
2022/06/10 04:52:41;;;;;;;12.77;5.32;;;12.90;99.90;;;;;;4994823;28;20034;-75
2022/06/10 04:55:08;;;;;;;12.15;5.68;;;13.70;99.90;;;;;;4991622;28;20050;-75
2022/06/10 04:57:35;;;;;;;18.88;6.38;;;13.10;99.90;;;;;;4990501;28;20046;-75
2022/06/10 05:00:05;;;;;;;16.35;5.95;;;13.20;99.90;;;;;;4985919;28;20049;-75
2022/06/10 05:02:30;;;;;;;14.25;5.88;;;13.30;99.90;;;;;;4987439;28;20394;-76
2022/06/10 05:04:56;;;;;;;11.07;5.53;;;13.40;99.90;;;;;;4995682;28;20084;-75
2022/06/10 05:07:22;;;;;;;16.40;6.32;;;13.60;99.90;;;;;;4991927;28;20377;-75
2022/06/10 05:09:47;;;;;;;15.00;5.22;;;13.80;99.90;;;;;;5004828;28;20046;-75
2022/06/10 05:12:13;;;;;;;11.20;6.00;;;13.70;99.90;;;;;;5006576;28;20046;-76
2022/06/10 05:14:38;;;;;;;8.85;5.38;;;13.80;99.90;;;;;;4986993;28;20034;-74
2022/06/10 05:17:04;;;;;;;15.57;5.88;;;14.10;99.90;;;;;;5013007;28;20570;-74
2022/06/10 05:19:30;;;;;;;14.82;5.47;;;13.90;99.90;;;;;;5007338;28;20030;-74
2022/06/10 05:21:56;;;;;;;15.15;5.40;;;13.90;99.90;;;;;;5014379;28;20046;-74
2022/06/10 05:24:22;;;;;;;12.10;5.30;;;13.90;99.90;;;;;;4997492;28;20071;-75
2022/06/10 05:26:48;;;;;;;13.88;5.38;;;14.00;99.90;;;;;;5002944;28;20143;-75
2022/06/10 05:29:13;;;;;;;12.30;5.32;;;14.00;99.90;;;;;;4986954;28;20046;-75
2022/06/10 05:31:39;;;;;;;10.07;5.20;;;14.10;99.90;;;;;;4993406;28;20486;-75
2022/06/10 05:36:49;;;;;;;13.45;4.88;;;14.00;99.90;;;;;;4985459;28;20352;-75
2022/06/10 05:39:15;;;;;;;15.75;5.57;;;14.10;99.90;;;;;;4986078;28;20039;-75
2022/06/10 05:44:26;;;;;;;13.55;4.82;;;14.10;99.90;;;;;;4991488;28;20053;-75
2022/06/10 05:46:53;;;;;;;12.20;4.88;;;14.30;99.90;;;;;;5008565;28;20379;-75
2022/06/10 05:49:19;;;;;;;15.20;5.03;;;14.30;99.90;;;;;;4986501;28;20066;-75
2022/06/10 05:51:45;;;;;;;13.70;5.53;;;14.30;99.90;;;;;;4992711;28;20464;-75
2022/06/10 05:54:11;;;;;;;12.70;4.57;;;14.30;99.90;;;;;;4990353;28;20445;-75
2022/06/10 05:56:37;;;;;;;12.05;4.80;;;14.40;99.90;;;;;;4992260;28;20053;-75
2022/06/10 05:59:03;;;;;;;15.35;5.20;;;14.60;99.90;;;;;;5023502;28;20092;-75
2022/06/10 06:01:29;;;;;;;12.57;4.60;;;14.50;99.90;;;;;;4975811;28;20038;-75
2022/06/10 06:03:54;;;;;;;11.50;4.53;;;14.50;99.90;;;;;;4990130;28;20046;-75
2022/06/10 06:06:20;;;;;;;13.13;4.88;;;14.60;99.90;;;;;;4973187;28;20470;-75
2022/06/10 06:08:48;;;;;;;15.90;4.60;;;14.60;99.90;;;;;;4995855;28;20072;-75
2022/06/10 06:11:18;;;;;;;13.75;5.40;;;14.60;99.90;;;;;;4986193;28;20030;-75
2022/06/10 06:13:44;;;;;;;12.18;4.93;;;14.70;99.90;;;;;;4976746;28;20041;-75
2022/06/10 06:16:15;;;;;;;19.77;5.40;;;14.70;99.90;;;;;;4993747;28;20044;-75
2022/06/10 06:18:41;;;;;;;13.40;5.18;;;14.70;99.90;;;;;;4988943;28;20084;-75
2022/06/10 06:21:07;;;;;;;16.42;5.32;;;14.70;99.90;;;;;;5011352;28;20073;-75
2022/06/10 06:23:33;;;;;;;10.05;5.15;;;14.70;99.90;;;;;;4995592;28;20077;-75
2022/06/10 06:25:58;;;;;;;16.98;5.75;;;14.70;99.90;;;;;;4992345;28;20406;-75
2022/06/10 06:28:24;;;;;;;12.57;5.32;;;14.70;99.90;;;;;;5004111;28;20076;-75
2022/06/10 06:30:50;;;;;;;13.32;5.45;;;14.90;99.90;;;;;;5003003;28;20121;-75
2022/06/10 06:33:16;;;;;;;10.50;5.38;;;14.80;99.90;;;;;;4993016;28;20042;-75
2022/06/10 06:35:47;;;;;;;13.98;5.05;;;14.80;99.90;;;;;;4995627;28;20034;-75
2022/06/10 06:38:13;;;;;;;18.10;5.95;;;14.80;99.90;;;;;;5010752;28;20057;-75
2022/06/10 06:40:41;;;;;;;19.00;5.38;;;14.80;99.90;;;;;;5011929;28;20037;-76
2022/06/10 06:43:08;;;;;;;10.13;4.82;;;14.80;99.90;;;;;;4980421;28;20037;-76
2022/06/10 06:45:34;;;;;;;12.13;5.43;;;15.10;99.90;;;;;;4992689;28;20088;-76
2022/06/10 06:48:04;;;;;;;12.27;5.50;;;14.90;99.90;;;;;;4988354;28;20519;-75
2022/06/10 06:50:32;;;;;;;13.35;5.55;;;15.10;99.90;;;;;;4991851;28;20173;-75
2022/06/10 06:52:58;;;;;;;13.10;5.63;;;15.30;99.90;;;;;;5011684;28;20041;-75
2022/06/10 06:55:24;;;;;;;17.92;6.07;;;15.10;99.90;;;;;;4991807;28;20046;-75
2022/06/10 06:57:51;;;;;;;13.98;6.18;;;15.20;99.90;;;;;;4992174;28;20121;-75
2022/06/10 07:00:19;;;;;;;9.98;5.53;;;15.00;99.90;;;;;;5010037;28;20395;-76
2022/06/10 07:02:45;;;;;;;11.18;5.82;;;15.40;99.90;;;;;;4968974;28;20069;-76
2022/06/10 07:05:12;;;;;;;14.82;6.00;;;15.40;99.90;;;;;;4986025;28;20046;-76
2022/06/10 07:07:42;;;;;;;15.18;6.57;;;15.50;99.90;;;;;;4987035;28;20050;-76
2022/06/10 07:10:10;;;;;;;16.30;6.00;;;15.50;99.90;;;;;;4977766;28;20049;-76
2022/06/10 07:12:36;;;;;;;14.50;5.55;;;15.50;99.90;;;;;;4984928;28;20049;-76
2022/06/10 07:15:04;;;;;;;13.48;5.97;;;15.50;99.90;;;;;;4984820;28;20066;-76
2022/06/10 07:17:30;;;;;;;13.30;6.03;;;15.50;99.90;;;;;;5012502;28;20053;-76
2022/06/10 07:19:58;;;;;;;13.95;6.10;;;15.50;99.90;;;;;;4991718;28;20057;-76
2022/06/10 07:22:24;;;;;;;12.82;5.80;;;15.50;99.90;;;;;;4977090;28;20038;-76
2022/06/10 07:24:50;;;;;;;15.82;6.40;;;15.60;99.90;;;;;;4960717;28;20034;-76
2022/06/10 07:27:15;;;;;;;13.43;5.65;;;15.70;99.90;;;;;;4994572;28;20292;-76
2022/06/10 07:29:45;;;;;;;14.35;6.18;;;15.90;99.90;;;;;;4990347;28;20042;-76
2022/06/10 07:32:11;;;;;;;14.48;5.53;;;15.90;99.90;;;;;;4990012;28;20045;-76
2022/06/10 07:34:36;;;;;;;13.45;6.13;;;15.90;99.90;;;;;;4979519;28;20134;-76
2022/06/10 07:37:03;;;;;;;17.88;5.53;;;16.00;99.90;;;;;;4992670;28;20460;-76
2022/06/10 07:39:28;;;;;;;10.02;5.15;;;16.10;99.90;;;;;;4989359;28;20486;-76
2022/06/10 07:41:58;;;;;;;11.50;5.32;;;16.20;99.90;;;;;;4982684;28;20046;-75
2022/06/10 07:44:32;;;;;;;17.50;5.47;;;16.30;99.90;;;;;;5008568;28;20053;-75
2022/06/10 07:47:01;;;;;;;13.98;5.10;;;16.30;99.90;;;;;;4988415;28;20072;-76
2022/06/10 07:49:27;;;;;;;11.75;4.32;;;16.40;99.90;;;;;;4987880;28;20049;-76
2022/06/10 07:51:52;;;;;;;9.98;4.40;;;16.50;99.90;;;;;;4982969;28;20129;-76
2022/06/10 07:54:18;;;;;;;13.45;4.88;;;16.50;99.90;;;;;;4977570;28;20042;-76
2022/06/10 07:56:44;;;;;;;10.13;4.38;;;16.50;99.90;;;;;;5000818;28;20114;-75
2022/06/10 07:59:10;;;;;;;15.32;4.88;;;16.40;99.90;;;;;;4993704;28;20091;-76
2022/06/10 08:01:36;;;;;;;12.23;4.55;;;16.50;99.90;;;;;;5012498;28;20034;-76
2022/06/10 08:04:06;;;;;;;11.98;4.63;;;16.50;99.90;;;;;;4989762;28;20042;-76
2022/06/10 08:06:33;;;;;;;12.32;4.47;;;16.50;99.90;;;;;;5013376;28;20125;-76
2022/06/10 08:08:58;;;;;;;13.90;4.65;;;16.50;99.90;;;;;;4989274;28;20486;-76
2022/06/10 08:11:24;;;;;;;13.45;4.20;;;16.50;99.90;;;;;;4992731;28;20041;-76
2022/06/10 08:13:50;;;;;;;11.95;4.30;;;16.50;99.90;;;;;;4983091;28;20038;-76
2022/06/10 08:16:15;;;;;;;11.70;4.38;;;16.60;99.90;;;;;;4987615;28;20046;-76
2022/06/10 08:18:42;;;;;;;13.25;5.05;;;16.50;99.90;;;;;;4990067;28;20126;-76
2022/06/10 08:23:52;;;;;;;12.57;4.50;;;16.60;99.90;;;;;;4986635;28;20093;-75
2022/06/10 08:26:20;;;;;;;10.45;4.50;;;16.60;99.90;;;;;;4989584;28;20052;-75
2022/06/10 08:28:47;;;;;;;10.57;4.90;;;16.60;99.90;;;;;;4985963;28;20050;-76
2022/06/10 08:31:13;;;;;;;15.50;5.28;;;16.70;99.90;;;;;;4989087;28;20042;-75
2022/06/10 08:33:39;;;;;;;11.38;4.45;;;16.70;99.90;;;;;;4982223;28;20096;-75
2022/06/10 08:36:06;;;;;;;10.50;4.50;;;16.80;99.90;;;;;;4985683;28;20047;-76
2022/06/10 08:38:32;;;;;;;13.98;4.53;;;16.80;99.90;;;;;;4992496;28;20589;-76
2022/06/10 08:41:15;;;;;;;16.77;5.05;;;16.90;99.90;;;;;;4989281;28;20112;-76
2022/06/10 08:44:09;;;;;;;14.18;4.10;;;16.90;99.90;;;;;;4982532;28;20038;-76
2022/06/10 08:47:06;;;;;;;12.45;4.32;;;17.00;99.90;;;;;;4971851;28;20041;-76
2022/06/10 08:49:58;;;;;;;13.90;5.10;;;17.00;99.90;;;;;;5002226;28;20034;-75
2022/06/10 08:52:45;;;;;;;15.25;4.88;;;17.00;99.90;;;;;;4985355;28;20049;-76
2022/06/10 08:55:25;;;;;;;11.20;4.15;;;17.10;99.90;;;;;;4983736;28;20380;-76
2022/06/10 08:57:53;;;;;;;11.48;4.40;;;17.10;99.90;;;;;;4964070;28;20088;-76
2022/06/10 09:00:24;;;;;;;14.82;4.45;;;17.10;99.90;;;;;;4992492;28;20030;-75
2022/06/10 09:03:13;;;;;;;11.20;4.38;;;17.10;99.90;;;;;;4988633;28;20487;-75
2022/06/10 09:05:56;;;;;;;13.13;4.50;;;17.10;99.90;;;;;;4988699;28;20053;-76
2022/06/10 09:08:32;;;;;;;12.65;4.30;;;17.10;99.90;;;;;;4986110;28;20099;-76
2022/06/10 09:11:25;;;;;;;11.38;4.68;;;17.10;99.90;;;;;;4996857;28;20037;-76
2022/06/10 09:14:10;;;;;;;;;;;17.10;99.90;;;;;;4990733;28;20410;-76
2022/06/10 09:16:50;;;;;;;17.02;4.55;;;17.10;99.90;;;;;;4975261;28;19973;-75
2022/06/10 09:19:34;;;;;;;13.65;3.83;;;17.10;99.90;;;;;;5005898;28;20513;-76
2022/06/10 09:22:18;;;;;;;11.15;4.28;;;17.10;99.90;;;;;;4991374;28;20113;-76
2022/06/10 09:24:52;;;;;;;12.55;4.47;;;17.10;99.90;;;;;;4988724;28;20042;-76
2022/06/10 09:27:33;;;;;;;14.30;4.30;;;17.20;99.90;;;;;;4981529;28;20042;-76
2022/06/10 09:30:04;;;;;;;8.63;3.80;;;17.20;99.90;;;;;;4979635;28;20046;-76
2022/06/10 09:32:36;;;;;;;13.00;3.80;;;17.30;99.90;;;;;;4992379;28;20045;-76
2022/06/10 09:35:11;;;;;;;11.98;3.80;;;17.30;99.90;;;;;;5016869;28;20494;-76
2022/06/10 09:38:05;;;;;;;11.68;3.78;;;17.40;99.90;;;;;;5010766;28;20058;-76
2022/06/10 09:41:03;;;;;;;10.27;3.70;;;17.50;99.90;;;;;;4999198;28;20514;-76
2022/06/10 09:43:33;;;;;;;10.80;4.22;;;17.50;99.90;;;;;;4998096;28;20043;-76
2022/06/10 09:46:42;;;;;;;6.53;3.08;;;17.70;99.90;;;;;;4979821;28;20487;-76
2022/06/10 09:49:23;;;;;;;13.10;3.83;;;17.80;99.90;;;;;;4972263;28;20053;-76
2022/06/10 09:52:17;;;;;;;10.15;3.33;;;18.10;99.90;;;;;;4973043;28;20108;-76
2022/06/10 09:54:55;;;;;;;16.70;3.70;;;18.30;99.90;;;;;;4982084;28;20498;-76
2022/06/10 09:57:23;;;;;;;10.73;3.70;;;18.60;99.90;;;;;;4977635;28;20510;-75
2022/06/10 10:00:18;;;;;;;11.10;3.42;;;18.90;99.90;;;;;;4993331;28;20046;-76
2022/06/10 10:03:02;;;;;;;10.38;3.20;;;19.30;99.90;;;;;;4972602;28;20038;-76
2022/06/10 10:05:53;;;;;;;10.00;3.40;;;19.50;99.90;;;;;;4989858;28;20038;-76
2022/06/10 10:08:52;;;;;;;13.73;3.47;;;19.80;99.90;;;;;;4989203;28;20514;-76
2022/06/10 10:11:27;;;;;;;9.13;3.35;;;19.80;99.90;;;;;;4991435;28;20046;-76
2022/06/10 10:14:25;;;;;;;9.82;3.78;;;19.90;99.90;;;;;;4980324;28;20077;-76
2022/06/10 10:17:22;;;;;;;13.85;3.60;;;19.90;99.90;;;;;;4972581;28;20394;-76
2022/06/10 10:20:06;;;;;;;10.63;3.63;;;19.90;99.90;;;;;;4972863;28;20042;-76
2022/06/10 10:23:01;;;;;;;9.57;4.45;;;20.00;99.90;;;;;;4996171;28;20041;-76
2022/06/10 10:25:27;;;;;;;9.80;4.13;;;20.00;99.90;;;;;;4989596;28;20073;-76
2022/06/10 10:27:54;;;;;;;13.65;3.83;;;20.10;99.90;;;;;;4996014;28;20073;-76
2022/06/10 10:30:42;;;;;;;14.90;5.07;;;20.30;99.90;;;;;;4991017;28;20045;-76
2022/06/10 10:33:11;;;;;;;11.60;4.03;;;20.60;99.90;;;;;;4995721;28;20065;-76
2022/06/10 10:35:44;;;;;;;8.82;4.25;;;20.90;99.90;;;;;;4992987;28;20037;-76
2022/06/10 10:38:27;;;;;;;13.45;3.88;;;21.10;99.90;;;;;;4985868;28;20042;-76
2022/06/10 10:40:53;;;;;;;17.15;4.20;;;21.30;99.90;;;;;;4995911;28;20044;-76
2022/06/10 10:43:24;;;;;;;11.38;4.03;;;21.40;99.90;;;;;;4984976;28;20125;-76
2022/06/10 10:45:55;;;;;;;13.18;4.15;;;21.50;99.90;;;;;;4986233;28;20049;-76
2022/06/10 10:48:25;;;;;;;11.50;3.65;;;21.50;99.90;;;;;;4980765;28;20383;-76
2022/06/10 10:51:17;;;;;;;12.75;4.00;;;21.30;99.90;;;;;;4989484;28;20042;-76
2022/06/10 10:53:48;;;;;;;9.10;3.42;;;21.00;99.90;;;;;;4973310;28;20085;-76
2022/06/10 10:56:16;;;;;;;12.52;3.92;;;20.80;99.90;;;;;;5012768;28;20032;-76
2022/06/10 10:58:52;;;;;;;12.65;4.15;;;20.60;99.90;;;;;;4992961;28;20050;-76
2022/06/10 11:01:44;;;;;;;14.90;3.83;;;20.50;99.90;;;;;;4995494;28;20042;-76
2022/06/10 11:04:12;;;;;;;14.73;3.78;;;20.50;99.90;;;;;;4990855;28;20037;-76
2022/06/10 11:06:38;;;;;;;11.65;3.85;;;20.50;99.90;;;;;;4995481;28;20097;-76
2022/06/10 11:09:21;;;;;;;11.70;3.33;;;20.50;99.90;;;;;;5024241;28;20437;-76
2022/06/10 11:11:49;;;;;;;10.68;3.17;;;20.50;99.90;;;;;;4991507;28;20057;-76
2022/06/10 11:14:36;;;;;;;9.38;3.20;;;20.50;99.90;;;;;;5007665;28;20108;-76
2022/06/10 11:17:06;;;;;;;9.20;3.03;;;20.50;99.90;;;;;;4995146;28;20042;-76
2022/06/10 11:19:32;;;;;;;8.63;3.05;;;20.50;99.90;;;;;;5023612;28;20562;-76
2022/06/10 11:22:04;;;;;;;10.82;3.28;;;20.40;99.90;;;;;;4986837;28;20117;-76
2022/06/10 11:25:15;;;;;;;9.05;3.25;;;20.30;99.90;;;;;;4990119;28;20053;-76
2022/06/10 11:27:50;;;;;;;12.15;3.45;;;20.20;99.90;;;;;;4971387;28;20422;-76
2022/06/10 11:30:19;;;;;;;10.55;3.00;;;20.30;99.90;;;;;;4982763;28;20367;-76
2022/06/10 11:32:47;;;;;;;9.55;2.97;;;20.40;99.90;;;;;;4995824;28;20375;-76
2022/06/10 11:35:25;;;;;;;8.80;3.22;;;20.40;99.90;;;;;;4991202;28;20096;-76
2022/06/10 11:38:03;;;;;;;8.32;2.95;;;20.60;99.90;;;;;;4997528;28;20380;-76
2022/06/10 11:40:39;;;;;;;11.00;3.08;;;20.60;99.90;;;;;;4989078;28;20089;-76
2022/06/10 11:43:23;;;;;;;14.48;3.08;;;20.50;99.90;;;;;;4995213;28;20046;-76
2022/06/10 11:45:52;;;;;;;12.63;3.40;;;20.50;99.90;;;;;;4991094;28;20095;-76
2022/06/10 11:48:39;;;;;;;8.45;2.97;;;20.40;99.90;;;;;;4983105;28;20038;-76
2022/06/10 11:51:23;;;;;;;10.55;3.05;;;20.60;99.90;;;;;;5006460;28;20519;-76
2022/06/10 11:54:26;;;;;;;14.60;2.80;;;20.60;99.90;;;;;;4967136;28;20054;-76
2022/06/10 12:00:32;;;;;;;9.93;3.13;;;20.80;99.90;;;;;;5009137;28;20073;-76
2022/06/10 12:03:29;;;;;;;11.50;2.80;;;20.80;99.90;;;;;;4983310;28;20173;-76
2022/06/10 12:05:59;;;;;;;13.00;3.03;;;20.70;99.90;;;;;;4984685;28;20049;-76
2022/06/10 12:08:52;;;;;;;9.15;2.75;;;20.60;99.90;;;;;;4989163;28;20049;-76
2022/06/10 12:11:32;;;;;;;13.65;3.88;;;20.50;99.90;;;;;;4985502;28;20047;-76
2022/06/10 12:14:11;;;;;;;10.23;2.80;;;20.30;99.90;;;;;;4985264;28;20046;-76
2022/06/10 12:16:38;;;;;;;7.82;2.55;;;20.20;99.90;;;;;;4977465;28;20046;-76
2022/06/10 12:19:12;;;;;;;9.98;2.83;;;20.10;99.90;;;;;;4972767;28;20033;-76
2022/06/10 12:21:37;;;;;;;13.60;3.03;;;20.10;99.90;;;;;;4994669;28;20175;-76
2022/06/10 12:24:11;;;;;;;7.65;2.72;;;20.00;99.90;;;;;;4994369;28;20113;-76
2022/06/10 12:26:49;;;;;;;7.75;2.70;;;20.10;99.90;;;;;;5010759;28;20060;-76
2022/06/10 12:29:47;;;;;;;9.40;3.00;;;20.20;99.90;;;;;;4979979;28;20033;-76
2022/06/10 12:32:40;;;;;;;8.23;2.90;;;20.40;99.90;;;;;;4933219;28;20052;-76
2022/06/10 12:35:18;;;;;;;14.02;3.22;;;20.40;99.90;;;;;;4991222;28;20041;-76
2022/06/10 12:37:50;;;;;;;7.30;3.00;;;20.50;99.90;;;;;;4981050;28;20564;-76
2022/06/10 12:40:15;;;;;;;8.98;2.88;;;20.60;99.90;;;;;;4989335;28;20033;-76
2022/06/10 12:42:55;;;;;;;11.00;2.90;;;20.60;99.90;;;;;;4996622;28;20050;-76
2022/06/10 12:45:30;;;;;;;9.40;2.90;;;20.70;99.90;;;;;;4996395;28;20037;-76
2022/06/10 12:47:59;;;;;;;11.40;3.30;;;20.60;99.90;;;;;;4974611;28;20049;-76
2022/06/10 12:50:33;;;;;;;9.38;3.33;;;20.60;99.90;;;;;;4996713;28;20387;-76
2022/06/10 12:53:40;;;;;;;12.43;3.40;;;20.60;99.90;;;;;;4993222;28;20169;-76
2022/06/10 12:56:27;;;;;;;9.68;3.15;;;20.60;99.90;;;;;;4993412;28;20080;-76
2022/06/10 12:59:09;;;;;;;8.15;3.05;;;20.70;99.90;;;;;;4985058;28;20049;-76
2022/06/10 13:01:35;;;;;;;12.93;3.72;;;20.70;99.90;;;;;;4968518;28;20035;-76
2022/06/10 13:04:14;;;;;;;9.57;3.28;;;20.80;99.90;;;;;;5008979;28;20575;-76
2022/06/10 13:06:44;;;;;;;9.13;3.58;;;20.90;99.90;;;;;;4985420;28;20121;-76
2022/06/10 13:09:15;;;;;;;8.02;3.47;;;21.10;99.90;;;;;;4986769;28;20364;-76
2022/06/10 13:11:49;;;;;;;8.37;3.30;;;21.20;99.90;;;;;;4987349;28;20045;-76
2022/06/10 13:14:30;;;;;;;10.73;3.83;;;21.40;99.90;;;;;;4980273;28;20699;-76
2022/06/10 13:16:58;;;;;;;12.85;3.67;;;21.60;99.90;;;;;;4992701;28;20507;-76
2022/06/10 13:19:38;;;;;;;7.60;3.03;;;21.70;99.90;;;;;;4972749;28;20399;-76
2022/06/10 13:22:19;;;;;;;8.68;3.50;;;21.80;99.90;;;;;;5005670;28;20057;-76
2022/06/10 13:25:07;;;;;;;9.68;2.88;;;21.80;99.90;;;;;;4989315;28;20070;-76
2022/06/10 13:27:45;;;;;;;6.97;3.30;;;21.80;99.90;;;;;;4989399;28;20510;-76
2022/06/10 13:30:14;;;;;;;6.43;3.03;;;21.60;99.90;;;;;;4974971;28;20494;-76
2022/06/10 13:32:52;;;;;;;9.52;3.03;;;21.50;99.90;;;;;;4979067;28;20042;-76